createdAt,value
2022-09-22T00:01:03.453Z,5.40
2022-09-22T00:03:34.149Z,5.30
2022-09-22T00:06:07.672Z,5.20
2022-09-22T00:08:37.526Z,5.20
2022-09-22T00:11:09.009Z,5.20
2022-09-22T00:13:37.576Z,5.20
2022-09-22T00:16:09.252Z,5.20
2022-09-22T00:18:37.176Z,5.10
2022-09-22T00:21:10.081Z,5.10
2022-09-22T00:23:38.067Z,5.10
2022-09-22T00:26:07.999Z,5.10
2022-09-22T00:28:35.427Z,5.10
2022-09-22T00:31:08.603Z,5.10
2022-09-22T00:33:36.139Z,5.10
2022-09-22T00:36:03.525Z,5.20
2022-09-22T00:38:31.179Z,5.20
2022-09-22T00:40:58.471Z,5.10
2022-09-22T00:43:27.279Z,5.10
2022-09-22T00:45:59.954Z,5.10
2022-09-22T00:48:30.803Z,5.10
2022-09-22T00:51:01.371Z,5.10
2022-09-22T00:53:29.574Z,5.10
2022-09-22T00:56:02.510Z,5.10
2022-09-22T00:58:36.012Z,5.00
2022-09-22T01:01:03.902Z,5.00
2022-09-22T01:03:32.068Z,5.00
2022-09-22T01:06:03.022Z,5.00
2022-09-22T01:08:31.654Z,5.00
2022-09-22T01:10:59.658Z,5.00
2022-09-22T01:13:46.652Z,5.00
2022-09-22T01:16:34.658Z,5.00
2022-09-22T01:19:29.160Z,4.90
2022-09-22T01:22:26.144Z,4.90
2022-09-22T01:25:33.040Z,4.80
2022-09-22T01:28:27.649Z,4.80
2022-09-22T01:31:05.471Z,4.70
2022-09-22T01:33:59.082Z,4.70
2022-09-22T01:36:34.980Z,4.70
2022-09-22T01:39:14.480Z,4.70
2022-09-22T01:41:51.726Z,4.60
2022-09-22T01:44:33.153Z,4.60
2022-09-22T01:47:06.822Z,4.50
2022-09-22T01:49:38.618Z,4.50
2022-09-22T01:52:13.260Z,4.40
2022-09-22T01:54:43.399Z,4.40
2022-09-22T01:57:20.121Z,4.30
2022-09-22T01:59:54.471Z,4.30
2022-09-22T02:02:30.009Z,4.30
2022-09-22T02:05:00.402Z,4.30
2022-09-22T02:07:36.211Z,4.30
2022-09-22T02:10:08.701Z,4.30
2022-09-22T02:12:36.663Z,4.40
2022-09-22T02:15:26.335Z,4.40
2022-09-22T02:17:57.383Z,4.40
2022-09-22T02:20:25.840Z,4.30
2022-09-22T02:22:54.039Z,4.30
2022-09-22T02:25:25.090Z,4.30
2022-09-22T02:27:55.237Z,4.20
2022-09-22T02:30:23.538Z,4.30
2022-09-22T02:32:53.177Z,4.30
2022-09-22T02:35:21.820Z,4.40
2022-09-22T02:37:51.355Z,4.30
2022-09-22T02:40:38.336Z,4.30
2022-09-22T02:43:20.614Z,4.20
2022-09-22T02:45:57.278Z,4.20
2022-09-22T02:48:29.382Z,4.10
2022-09-22T02:50:57.102Z,4.10
2022-09-22T02:53:24.528Z,4.00
2022-09-22T02:55:51.631Z,4.00
2022-09-22T02:58:18.928Z,4.00
2022-09-22T03:00:45.983Z,4.00
2022-09-22T03:03:13.185Z,4.00
2022-09-22T03:05:40.641Z,4.00
2022-09-22T03:08:08.032Z,4.00
2022-09-22T03:10:35.171Z,4.00
2022-09-22T03:13:16.090Z,4.00
2022-09-22T03:15:45.630Z,4.00
2022-09-22T03:18:14.041Z,4.00
2022-09-22T03:20:41.882Z,4.00
2022-09-22T03:23:09.500Z,3.90
2022-09-22T03:25:37.168Z,3.90
2022-09-22T03:28:05.000Z,3.90
2022-09-22T03:30:32.691Z,3.80
2022-09-22T03:33:00.256Z,3.80
2022-09-22T03:35:27.728Z,3.70
2022-09-22T03:37:55.204Z,3.80
2022-09-22T03:40:22.929Z,3.80
2022-09-22T03:42:50.512Z,3.80
2022-09-22T03:45:18.061Z,3.80
2022-09-22T03:47:46.616Z,3.70
2022-09-22T03:50:14.658Z,3.60
2022-09-22T03:52:44.036Z,3.70
2022-09-22T03:55:12.107Z,3.70
2022-09-22T03:57:40.663Z,3.60
2022-09-22T04:00:08.869Z,3.70
2022-09-22T04:02:39.026Z,3.70
2022-09-22T04:05:07.052Z,3.70
2022-09-22T04:07:34.395Z,3.80
2022-09-22T04:10:02.363Z,3.80
2022-09-22T04:12:29.773Z,3.80
2022-09-22T04:14:57.034Z,3.80
2022-09-22T04:17:24.139Z,3.70
2022-09-22T04:19:51.668Z,3.70
2022-09-22T04:22:19.251Z,3.70
2022-09-22T04:24:46.960Z,3.70
2022-09-22T04:27:19.960Z,3.70
2022-09-22T04:29:48.685Z,3.60
2022-09-22T04:32:16.736Z,3.60
2022-09-22T04:34:45.227Z,3.60
2022-09-22T04:37:13.987Z,3.60
2022-09-22T04:39:41.552Z,3.50
2022-09-22T04:42:09.761Z,3.50
2022-09-22T04:44:37.035Z,3.50
2022-09-22T04:47:05.242Z,3.50
2022-09-22T04:49:32.363Z,3.50
2022-09-22T04:51:59.568Z,3.50
2022-09-22T04:54:29.407Z,3.50
2022-09-22T04:56:56.572Z,3.60
2022-09-22T04:59:24.042Z,3.60
2022-09-22T05:01:51.320Z,3.60
2022-09-22T05:04:18.579Z,3.70
2022-09-22T05:06:45.753Z,3.70
2022-09-22T05:09:13.449Z,3.80
2022-09-22T05:11:40.678Z,3.90
2022-09-22T05:14:07.997Z,3.90
2022-09-22T05:16:35.537Z,4.00
2022-09-22T05:19:02.875Z,4.10
2022-09-22T05:21:30.321Z,4.20
2022-09-22T05:23:57.612Z,4.30
2022-09-22T05:26:25.161Z,4.30
2022-09-22T05:28:52.267Z,4.30
2022-09-22T05:31:19.831Z,4.30
2022-09-22T05:33:47.123Z,4.40
2022-09-22T05:36:14.621Z,4.30
2022-09-22T05:38:41.908Z,4.40
2022-09-22T05:41:09.410Z,4.40
2022-09-22T05:43:36.999Z,4.40
2022-09-22T05:46:04.081Z,4.40
2022-09-22T05:48:31.656Z,4.50
2022-09-22T05:50:59.189Z,4.60
2022-09-22T05:53:26.387Z,4.60
2022-09-22T05:55:54.417Z,4.70
2022-09-22T05:58:21.506Z,4.60
2022-09-22T06:00:48.771Z,4.70
2022-09-22T06:03:15.891Z,4.80
2022-09-22T06:05:44.847Z,4.90
2022-09-22T06:08:12.610Z,5.20
2022-09-22T06:10:39.686Z,5.70
2022-09-22T06:13:10.010Z,6.10
2022-09-22T06:15:38.455Z,6.40
2022-09-22T06:18:11.886Z,6.70
2022-09-22T06:20:42.923Z,6.90
2022-09-22T06:23:10.578Z,7.30
2022-09-22T06:25:37.776Z,8.60
2022-09-22T06:28:07.598Z,11.00
2022-09-22T06:30:36.740Z,13.50
2022-09-22T06:33:03.965Z,15.70
2022-09-22T06:35:37.833Z,17.30
2022-09-22T06:38:07.368Z,18.70
2022-09-22T06:40:38.487Z,19.60
2022-09-22T06:43:15.131Z,19.80
2022-09-22T06:45:42.974Z,18.60
2022-09-22T06:48:11.759Z,17.40
2022-09-22T06:50:40.968Z,15.40
2022-09-22T06:53:11.871Z,13.60
2022-09-22T06:55:41.840Z,12.30
2022-09-22T06:58:10.109Z,11.20
2022-09-22T07:00:37.660Z,10.40
2022-09-22T07:03:09.154Z,9.90
2022-09-22T07:05:37.362Z,9.40
2022-09-22T07:08:05.247Z,9.40
2022-09-22T07:10:38.114Z,9.90
2022-09-22T07:13:06.745Z,11.70
2022-09-22T07:15:35.738Z,14.10
2022-09-22T07:18:04.500Z,16.20
2022-09-22T07:20:33.738Z,18.50
2022-09-22T07:23:01.142Z,20.10
2022-09-22T07:25:28.864Z,21.20
2022-09-22T07:27:57.898Z,21.80
2022-09-22T07:30:28.255Z,22.20
2022-09-22T07:32:57.124Z,22.40
2022-09-22T07:35:24.271Z,23.10
2022-09-22T07:37:57.026Z,23.00
2022-09-22T07:40:24.485Z,23.60
2022-09-22T07:42:51.761Z,24.00
2022-09-22T07:45:19.110Z,24.20
2022-09-22T07:48:06.273Z,24.00
2022-09-22T07:50:33.757Z,24.40
2022-09-22T07:53:01.094Z,24.90
2022-09-22T07:55:28.142Z,24.60
2022-09-22T07:58:00.217Z,24.80
2022-09-22T08:00:33.039Z,25.20
2022-09-22T08:03:01.496Z,25.50
2022-09-22T08:05:30.020Z,26.10
2022-09-22T08:07:58.618Z,26.00
2022-09-22T08:10:28.357Z,25.90
2022-09-22T08:12:58.197Z,26.30
2022-09-22T08:15:27.582Z,26.50
2022-09-22T08:17:58.990Z,26.70
2022-09-22T08:20:29.181Z,26.80
2022-09-22T08:23:05.599Z,26.80
2022-09-22T08:25:32.828Z,26.20
2022-09-22T08:28:02.293Z,26.30
2022-09-22T08:30:29.285Z,25.90
2022-09-22T08:32:57.072Z,25.80
2022-09-22T08:35:24.382Z,24.80
2022-09-22T08:37:51.831Z,23.60
2022-09-22T08:40:23.797Z,22.30
2022-09-22T08:42:54.890Z,21.30
2022-09-22T08:45:31.427Z,20.50
2022-09-22T08:48:26.919Z,20.00
2022-09-22T08:51:22.009Z,19.90
2022-09-22T08:53:50.530Z,20.20
2022-09-22T08:56:29.293Z,20.10
2022-09-22T08:59:11.491Z,20.20
2022-09-22T09:02:14.403Z,20.30
2022-09-22T09:05:02.653Z,20.20
2022-09-22T09:07:44.051Z,19.90
2022-09-22T09:10:29.129Z,19.80
2022-09-22T09:12:59.082Z,19.80
2022-09-22T09:15:29.554Z,20.00
2022-09-22T09:18:02.912Z,19.90
2022-09-22T09:20:39.111Z,20.20
2022-09-22T09:23:16.235Z,20.30
2022-09-22T09:25:46.438Z,19.90
2022-09-22T09:28:21.182Z,19.60
2022-09-22T09:30:56.748Z,19.10
2022-09-22T09:33:25.161Z,19.10
2022-09-22T09:35:53.713Z,19.50
2022-09-22T09:38:29.624Z,20.00
2022-09-22T09:41:09.403Z,20.50
2022-09-22T09:43:37.326Z,20.70
2022-09-22T09:46:12.626Z,20.70
2022-09-22T09:49:05.598Z,20.00
2022-09-22T09:51:39.916Z,19.40
2022-09-22T09:54:09.112Z,19.10
2022-09-22T09:57:08.543Z,19.20
2022-09-22T09:59:57.073Z,19.30
2022-09-22T10:02:28.009Z,19.20
2022-09-22T10:05:07.748Z,19.40
2022-09-22T10:07:44.984Z,19.70
2022-09-22T10:10:33.861Z,19.60
2022-09-22T10:13:04.298Z,19.50
2022-09-22T10:15:34.901Z,19.60
2022-09-22T10:18:22.718Z,19.80
2022-09-22T10:21:03.471Z,19.90
2022-09-22T10:23:32.679Z,19.80
2022-09-22T10:26:19.881Z,19.80
2022-09-22T10:29:16.737Z,20.30
2022-09-22T10:32:02.866Z,21.00
2022-09-22T10:34:37.149Z,21.00
2022-09-22T10:37:11.975Z,20.60
2022-09-22T10:40:00.433Z,20.30
2022-09-22T10:42:34.674Z,19.80
2022-09-22T10:45:07.260Z,19.60
2022-09-22T10:47:51.507Z,19.50
2022-09-22T10:50:58.875Z,19.70
2022-09-22T10:53:27.558Z,20.10
2022-09-22T10:56:09.255Z,20.20
2022-09-22T10:59:16.157Z,20.10
2022-09-22T11:02:08.239Z,19.50
2022-09-22T11:05:10.361Z,19.80
2022-09-22T11:08:24.742Z,20.20
2022-09-22T11:11:18.271Z,20.20
2022-09-22T11:14:01.400Z,20.00
2022-09-22T11:16:34.304Z,20.40
2022-09-22T11:19:23.269Z,20.90
2022-09-22T11:22:15.432Z,21.20
2022-09-22T11:24:57.199Z,21.20
2022-09-22T11:27:38.178Z,21.10
2022-09-22T11:30:23.036Z,21.20
2022-09-22T11:32:59.870Z,21.00
2022-09-22T11:35:34.426Z,21.00
2022-09-22T11:38:29.735Z,21.10
2022-09-22T11:41:16.849Z,21.00
2022-09-22T11:43:57.095Z,20.90
2022-09-22T11:46:37.938Z,20.80
2022-09-22T11:49:18.001Z,20.70
2022-09-22T11:52:01.895Z,20.60
2022-09-22T11:55:00.488Z,20.70
2022-09-22T11:57:34.726Z,20.60
2022-09-22T12:00:17.559Z,20.50
2022-09-22T12:02:55.191Z,20.40
2022-09-22T12:05:27.614Z,20.20
2022-09-22T12:07:57.370Z,20.00
2022-09-22T12:10:44.927Z,20.10
2022-09-22T12:13:16.710Z,20.30
2022-09-22T12:15:58.811Z,20.50
2022-09-22T12:18:38.120Z,20.70
2022-09-22T12:21:34.835Z,21.10
2022-09-22T12:24:07.983Z,21.40
2022-09-22T12:26:38.125Z,21.20
2022-09-22T12:29:28.235Z,20.90
2022-09-22T12:32:02.400Z,20.70
2022-09-22T12:34:46.517Z,20.60
2022-09-22T12:37:31.831Z,20.50
2022-09-22T12:40:22.587Z,20.60
2022-09-22T12:42:52.638Z,20.60
2022-09-22T12:45:41.147Z,20.70
2022-09-22T12:48:19.088Z,20.80
2022-09-22T12:50:52.580Z,21.10
2022-09-22T12:53:24.580Z,21.00
2022-09-22T12:55:58.721Z,21.10
2022-09-22T12:58:39.858Z,21.10
2022-09-22T13:01:32.830Z,20.80
2022-09-22T13:04:11.912Z,20.50
2022-09-22T13:06:39.865Z,20.10
2022-09-22T13:09:08.195Z,20.00
2022-09-22T13:12:16.537Z,19.90
2022-09-22T13:15:12.042Z,20.10
2022-09-22T13:17:53.444Z,20.40
2022-09-22T13:20:33.402Z,20.30
2022-09-22T13:23:13.420Z,20.10
2022-09-22T13:25:43.982Z,19.90
2022-09-22T13:28:17.579Z,19.70
2022-09-22T13:30:49.608Z,19.90
2022-09-22T13:33:21.959Z,20.20
2022-09-22T13:35:58.109Z,20.20
2022-09-22T13:38:26.466Z,20.30
2022-09-22T13:40:56.042Z,20.40
2022-09-22T13:43:33.648Z,20.40
2022-09-22T13:46:03.422Z,20.20
2022-09-22T13:48:37.136Z,19.90
2022-09-22T13:51:11.734Z,19.60
2022-09-22T13:53:42.968Z,19.40
2022-09-22T13:56:20.832Z,19.20
2022-09-22T13:58:51.012Z,19.00
2022-09-22T14:01:20.954Z,18.80
2022-09-22T14:03:50.787Z,18.70
2022-09-22T14:06:23.075Z,18.60
2022-09-22T14:08:52.191Z,18.60
2022-09-22T14:11:24.767Z,18.50
2022-09-22T14:13:57.069Z,18.40
2022-09-22T14:16:46.999Z,18.40
2022-09-22T14:19:35.323Z,18.40
2022-09-22T14:22:07.172Z,18.40
2022-09-22T14:24:40.747Z,18.60
2022-09-22T14:27:21.410Z,18.40
2022-09-22T14:29:52.179Z,18.30
2022-09-22T14:32:32.108Z,18.20
2022-09-22T14:35:03.631Z,18.20
2022-09-22T14:37:39.190Z,18.10
2022-09-22T14:40:15.700Z,17.90
2022-09-22T14:42:55.294Z,17.90
2022-09-22T14:45:24.623Z,17.90
2022-09-22T14:48:12.415Z,17.60
2022-09-22T14:51:11.399Z,17.30
2022-09-22T14:53:51.901Z,17.20
2022-09-22T14:56:29.902Z,17.10
2022-09-22T14:59:28.045Z,17.10
2022-09-22T15:02:16.888Z,17.00
2022-09-22T15:04:51.519Z,17.00
2022-09-22T15:07:35.278Z,16.90
2022-09-22T15:10:07.989Z,16.80
2022-09-22T15:12:47.345Z,16.70
2022-09-22T15:15:24.636Z,16.60
2022-09-22T15:18:15.326Z,16.50
2022-09-22T15:20:45.381Z,16.30
2022-09-22T15:23:16.691Z,16.10
2022-09-22T15:25:44.748Z,16.00
2022-09-22T15:28:15.062Z,15.90
2022-09-22T15:30:44.477Z,15.80
2022-09-22T15:33:15.712Z,15.70
2022-09-22T15:35:45.601Z,15.70
2022-09-22T15:38:17.394Z,15.70
2022-09-22T15:40:45.473Z,15.60
2022-09-22T15:43:19.449Z,15.60
2022-09-22T15:45:49.121Z,15.60
2022-09-22T15:48:24.897Z,15.70
2022-09-22T15:50:52.796Z,15.70
2022-09-22T15:53:20.168Z,15.70
2022-09-22T15:55:48.065Z,15.60
2022-09-22T15:58:19.008Z,15.60
2022-09-22T16:00:47.723Z,15.60
2022-09-22T16:03:22.537Z,15.50
2022-09-22T16:05:57.144Z,15.50
2022-09-22T16:08:28.629Z,15.40
2022-09-22T16:10:56.933Z,15.30
2022-09-22T16:13:24.948Z,15.30
2022-09-22T16:15:52.558Z,15.10
2022-09-22T16:18:20.405Z,15.10
2022-09-22T16:20:48.289Z,15.10
2022-09-22T16:23:16.673Z,15.00
2022-09-22T16:25:44.767Z,14.90
2022-09-22T16:28:12.419Z,14.80
2022-09-22T16:30:39.523Z,14.70
2022-09-22T16:33:06.712Z,14.50
2022-09-22T16:35:33.776Z,14.40
2022-09-22T16:38:01.230Z,14.20
2022-09-22T16:40:29.679Z,14.00
2022-09-22T16:42:56.948Z,13.90
2022-09-22T16:45:44.056Z,13.60
2022-09-22T16:48:11.269Z,13.30
2022-09-22T16:50:38.308Z,13.10
2022-09-22T16:53:07.521Z,12.90
2022-09-22T16:55:37.445Z,12.80
2022-09-22T16:58:08.565Z,12.80
2022-09-22T17:00:36.158Z,12.60
2022-09-22T17:03:03.205Z,12.40
2022-09-22T17:05:32.898Z,12.20
2022-09-22T17:08:05.947Z,12.10
2022-09-22T17:10:35.761Z,12.00
2022-09-22T17:13:04.946Z,11.90
2022-09-22T17:15:35.930Z,11.80
2022-09-22T17:18:04.497Z,11.70
2022-09-22T17:20:31.714Z,11.50
2022-09-22T17:22:59.111Z,11.40
2022-09-22T17:25:28.057Z,11.30
2022-09-22T17:27:55.392Z,11.20
2022-09-22T17:30:22.794Z,11.20
2022-09-22T17:32:50.152Z,11.00
2022-09-22T17:35:17.493Z,10.90
2022-09-22T17:37:44.647Z,10.90
2022-09-22T17:40:12.251Z,10.80
2022-09-22T17:42:39.408Z,10.70
2022-09-22T17:45:07.847Z,10.70
2022-09-22T17:47:57.569Z,10.70
2022-09-22T17:50:44.569Z,10.60
2022-09-22T17:54:11.344Z,10.50
2022-09-22T17:56:38.492Z,10.50
2022-09-22T17:59:05.753Z,10.30
2022-09-22T18:01:32.873Z,10.20
2022-09-22T18:04:00.047Z,10.10
2022-09-22T18:06:27.039Z,10.10
2022-09-22T18:09:01.049Z,10.10
2022-09-22T18:11:28.115Z,10.00
2022-09-22T18:13:56.223Z,10.00
2022-09-22T18:16:30.250Z,10.00
2022-09-22T18:18:57.310Z,10.00
2022-09-22T18:21:24.419Z,10.00
2022-09-22T18:23:52.111Z,10.00
2022-09-22T18:26:19.940Z,10.00
2022-09-22T18:28:50.821Z,9.90
2022-09-22T18:31:18.038Z,9.90
2022-09-22T18:33:45.206Z,9.90
2022-09-22T18:36:12.520Z,9.90
2022-09-22T18:38:42.309Z,9.90
2022-09-22T18:41:09.556Z,9.90
2022-09-22T18:43:36.878Z,9.90
2022-09-22T18:46:07.405Z,10.00
2022-09-22T18:48:34.855Z,10.00
2022-09-22T18:51:06.560Z,10.00
2022-09-22T18:53:33.712Z,9.90
2022-09-22T18:56:17.891Z,9.90
2022-09-22T18:58:45.041Z,9.70
2022-09-22T19:01:13.961Z,9.70
2022-09-22T19:03:41.630Z,9.50
2022-09-22T19:06:08.783Z,9.50
2022-09-22T19:08:35.988Z,9.50
2022-09-22T19:11:03.129Z,9.40
2022-09-22T19:13:31.341Z,9.30
2022-09-22T19:15:58.899Z,9.30
2022-09-22T19:18:26.406Z,9.20
2022-09-22T19:20:53.756Z,9.10
2022-09-22T19:23:21.112Z,9.10
2022-09-22T19:25:51.879Z,9.10
2022-09-22T19:28:19.840Z,9.00
2022-09-22T19:30:47.635Z,9.10
2022-09-22T19:33:15.569Z,9.10
2022-09-22T19:35:43.046Z,8.90
2022-09-22T19:38:10.445Z,8.90
2022-09-22T19:40:37.619Z,9.00
2022-09-22T19:43:04.789Z,8.90
2022-09-22T19:45:32.291Z,9.00
2022-09-22T19:47:59.336Z,8.90
2022-09-22T19:50:26.440Z,8.90
2022-09-22T19:52:53.690Z,8.80
2022-09-22T19:55:21.415Z,8.80
2022-09-22T19:57:51.946Z,8.80
2022-09-22T20:00:26.190Z,8.70
2022-09-22T20:02:59.016Z,8.70
2022-09-22T20:05:37.056Z,8.70
2022-09-22T20:08:05.754Z,8.60
2022-09-22T20:10:33.970Z,8.60
2022-09-22T20:13:01.094Z,8.50
2022-09-22T20:15:28.590Z,8.40
2022-09-22T20:17:55.788Z,8.40
2022-09-22T20:20:25.362Z,8.30
2022-09-22T20:23:00.272Z,8.20
2022-09-22T20:25:30.718Z,8.10
2022-09-22T20:27:58.334Z,8.00
2022-09-22T20:30:25.888Z,8.00
2022-09-22T20:32:53.132Z,8.00
2022-09-22T20:35:22.077Z,7.90
2022-09-22T20:37:49.355Z,7.90
2022-09-22T20:40:20.237Z,7.80
2022-09-22T20:42:48.733Z,7.80
2022-09-22T20:45:16.300Z,7.70
2022-09-22T20:47:43.485Z,7.70
2022-09-22T20:50:12.965Z,7.70
2022-09-22T20:52:42.528Z,7.70
2022-09-22T20:55:11.462Z,7.70
2022-09-22T20:57:39.093Z,7.70
2022-09-22T21:00:07.229Z,7.60
2022-09-22T21:02:34.382Z,7.60
2022-09-22T21:05:01.996Z,7.60
2022-09-22T21:07:31.031Z,7.50
2022-09-22T21:10:18.080Z,7.60
2022-09-22T21:12:45.433Z,7.60
2022-09-22T21:15:12.997Z,7.60
2022-09-22T21:17:43.668Z,7.60
2022-09-22T21:20:11.123Z,7.70
2022-09-22T21:22:38.204Z,7.70
2022-09-22T21:25:05.799Z,7.60
2022-09-22T21:27:33.115Z,7.60
2022-09-22T21:30:00.158Z,7.60
2022-09-22T21:32:27.254Z,7.50
2022-09-22T21:34:54.392Z,7.50
2022-09-22T21:37:23.523Z,7.40
2022-09-22T21:39:50.673Z,7.50
2022-09-22T21:42:17.774Z,7.40
2022-09-22T21:44:46.571Z,7.30
2022-09-22T21:47:13.654Z,7.30
2022-09-22T21:49:40.861Z,7.30
2022-09-22T21:52:08.085Z,7.20
2022-09-22T21:54:35.103Z,7.30
2022-09-22T21:57:02.204Z,7.30
2022-09-22T21:59:29.838Z,7.30
2022-09-22T22:01:57.000Z,7.20
2022-09-22T22:04:24.243Z,7.20
2022-09-22T22:06:52.179Z,7.20
2022-09-22T22:09:22.506Z,7.10
2022-09-22T22:11:55.543Z,7.10
2022-09-22T22:14:24.888Z,7.10
2022-09-22T22:16:54.529Z,7.20
2022-09-22T22:19:25.889Z,7.10
2022-09-22T22:21:54.138Z,7.00
2022-09-22T22:24:42.518Z,7.00
2022-09-22T22:27:10.972Z,7.00
2022-09-22T22:29:39.002Z,7.00
2022-09-22T22:32:08.716Z,7.00
2022-09-22T22:34:36.457Z,7.00
2022-09-22T22:37:04.818Z,7.00
2022-09-22T22:39:32.694Z,7.00
2022-09-22T22:41:59.851Z,7.00
2022-09-22T22:44:26.882Z,6.90
2022-09-22T22:46:53.992Z,6.80
2022-09-22T22:49:21.087Z,6.70
2022-09-22T22:51:49.452Z,6.60
2022-09-22T22:54:16.652Z,6.50
2022-09-22T22:56:47.794Z,6.50
2022-09-22T22:59:18.237Z,6.50
2022-09-22T23:01:45.361Z,6.50
2022-09-22T23:04:12.824Z,6.60
2022-09-22T23:06:44.204Z,6.50
2022-09-22T23:09:14.120Z,6.60
2022-09-22T23:11:42.451Z,6.50
2022-09-22T23:14:11.957Z,6.50
2022-09-22T23:16:44.552Z,6.40
2022-09-22T23:19:15.232Z,6.40
2022-09-22T23:21:42.430Z,6.30
2022-09-22T23:24:10.002Z,6.30
2022-09-22T23:26:40.574Z,6.20
2022-09-22T23:29:07.808Z,6.20
2022-09-22T23:31:35.043Z,6.20
2022-09-22T23:34:02.157Z,6.20
2022-09-22T23:36:29.682Z,6.20
2022-09-22T23:39:02.666Z,6.10
2022-09-22T23:41:31.535Z,6.00
2022-09-22T23:43:58.581Z,6.00
2022-09-22T23:46:25.938Z,6.00
2022-09-22T23:48:53.179Z,5.90
2022-09-22T23:51:21.579Z,5.90
2022-09-22T23:53:48.794Z,5.90
2022-09-22T23:56:16.128Z,5.90
2022-09-22T23:58:43.357Z,5.80
